Estación Meteorológica Peña el Pijo (Robertgarden) [ 07/21/19 01:39:44 CEST ]

Fecha Hora Presion(HPa) Temp (°C) Humedad % Rocio (°C) Viento ( m/s) Direccion Lluvia 1Hora(mm) Lluvia 24H(mm) LLuvia Total(mm)
2018-Nov-24 01:01:32 1007.000 0.9 87 -1.1       1.03 151.77
2018-Nov-24 02:03:09 1006.600 0.2 87 -1.7       1.03 151.77
2018-Nov-24 03:01:27 1006.300 -0.4 88 -2.1       1.03 151.77
2018-Nov-24 04:01:51 1005.800 -0.1 88 -1.8       1.03 151.77
2018-Nov-24 05:01:40 1005.500 0.4 89 -1.2       1.03 151.77
2018-Nov-24 06:01:25 1005.500 0.3 89 -1.3         151.77
2018-Nov-24 07:01:32 1005.900 -0.2 88 -1.9         151.77
2018-Nov-24 08:01:21 1006.100 -0.6 88 -2.3         151.77
2018-Nov-24 09:01:39 1006.300 -0.1 88 -1.8         151.77
2018-Nov-24 10:01:34 1006.800 5.4 89 3.7         151.77
2018-Nov-24 11:01:43 1006.800 9.3 75 5.0         151.77
2018-Nov-24 12:01:31 1006.100 11.1 60 3.6         151.77
2018-Nov-24 13:01:33 1005.400 11.3 57 3.0         151.77
2018-Nov-24 14:01:19 1004.800 13.0 49 2.4         151.77
2018-Nov-24 15:01:08 1004.900 12.5 48 1.7         151.77
2018-Nov-24 16:01:26 1005.000 10.9 51 1.2         151.77
2018-Nov-24 17:01:47 1005.000 8.2 57 0.1         151.77
2018-Nov-24 18:01:40 1005.300 6.6 63 0.0         151.77
2018-Nov-24 19:02:01 1005.400 3.9 70 -1.1         151.77
2018-Nov-24 20:01:46 1006.000 2.7 74 -1.5         151.77
2018-Nov-24 21:01:35 1005.900 2.1 75 -1.9         151.77
2018-Nov-24 22:01:43 1005.800 1.9 79 -1.4         151.77
2018-Nov-24 23:01:46 1005.400 2.2 77 -1.4         151.77

Temperatura Máxima:13°    Temperatura Mínima:
Presión Máxima:1007.000 Hpa    Presión Mínima:1004.800 Hpa


Volver